Time;durP1;ratioP1;P1;durP2;ratioP2;P2;SDS_P1;SDS_P2;PMS_P1;PMS_P2;Temp;Humidity;BMP_temperature;BMP_pressure;BME280_temperature;BME280_humidity;BME280_pressure;Samples;Min_cycle;Max_cycle;Signal;HPM_P1;HPM_P2
2022/03/13 00:00:49;;;;;;;14.20;9.10;;;4.80;99.90;;;;;;4896150;29;20432;-51
2022/03/13 00:03:17;;;;;;;12.80;8.30;;;4.80;99.90;;;;;;4888356;29;20197;-51
2022/03/13 00:05:45;;;;;;;13.70;8.13;;;4.80;99.90;;;;;;4900162;29;20475;-51
2022/03/13 00:08:27;;;;;;;16.90;8.83;;;4.80;99.90;;;;;;4901044;29;20444;-51
2022/03/13 00:11:07;;;;;;;14.37;8.33;;;4.70;99.90;;;;;;4895994;29;20438;-51
2022/03/13 00:13:37;;;;;;;17.80;8.60;;;4.70;99.90;;;;;;4895360;29;20454;-51
2022/03/13 00:16:08;;;;;;;13.67;8.07;;;4.70;99.90;;;;;;4894937;29;20470;-50
2022/03/13 00:18:35;;;;;;;13.83;8.73;;;4.70;99.90;;;;;;4895302;29;20431;-51
2022/03/13 00:21:03;;;;;;;17.77;9.33;;;4.70;99.90;;;;;;4895584;29;20792;-51
2022/03/13 00:23:30;;;;;;;16.20;9.50;;;4.70;99.90;;;;;;4895342;29;20460;-51
2022/03/13 00:25:55;;;;;;;14.63;8.90;;;4.60;99.90;;;;;;4895545;29;20565;-52
2022/03/13 00:28:21;;;;;;;16.03;8.43;;;4.60;99.90;;;;;;4895482;29;20451;-51
2022/03/13 00:30:47;;;;;;;14.60;8.23;;;4.60;99.90;;;;;;4894556;29;20207;-50
2022/03/13 00:33:12;;;;;;;14.13;8.27;;;4.60;99.90;;;;;;4895279;29;20226;-51
2022/03/13 00:35:38;;;;;;;13.70;8.87;;;4.60;99.90;;;;;;4894191;29;20564;-51
2022/03/13 00:38:06;;;;;;;16.33;9.13;;;4.60;99.90;;;;;;4890909;29;20625;-51
2022/03/13 00:40:31;;;;;;;13.90;8.63;;;4.60;99.90;;;;;;4893876;29;20224;-51
2022/03/13 00:42:57;;;;;;;30.27;14.00;;;4.60;99.90;;;;;;4895243;29;20443;-51
2022/03/13 00:45:22;;;;;;;17.80;9.40;;;4.50;99.90;;;;;;4886051;29;20228;-51
2022/03/13 00:47:48;;;;;;;21.73;10.83;;;4.50;99.90;;;;;;4895583;29;20201;-51
2022/03/13 00:50:13;;;;;;;13.23;9.30;;;4.40;99.90;;;;;;4894938;29;20191;-51
2022/03/13 00:52:39;;;;;;;13.53;8.30;;;4.30;99.90;;;;;;4894731;29;20200;-51
2022/03/13 00:55:05;;;;;;;14.50;9.23;;;4.20;99.90;;;;;;4895078;29;20207;-51
2022/03/13 00:57:32;;;;;;;14.13;8.80;;;4.30;99.90;;;;;;4895197;29;20208;-52
2022/03/13 00:59:58;;;;;;;15.23;8.50;;;4.20;99.90;;;;;;4894831;29;20444;-51
2022/03/13 01:02:23;;;;;;;14.80;8.50;;;4.10;99.90;;;;;;4894811;29;20508;-51
2022/03/13 01:04:49;;;;;;;15.47;8.90;;;4.10;99.90;;;;;;4897521;29;20223;-51
2022/03/13 01:07:14;;;;;;;13.60;9.20;;;4.20;99.90;;;;;;4893222;29;20214;-51
2022/03/13 01:09:41;;;;;;;16.47;9.07;;;4.20;99.90;;;;;;4893871;29;20223;-51
2022/03/13 01:12:07;;;;;;;13.47;8.60;;;4.10;99.90;;;;;;4894432;29;20200;-51
2022/03/13 01:14:35;;;;;;;15.57;8.73;;;4.10;99.90;;;;;;4894932;29;20504;-51
2022/03/13 01:17:05;;;;;;;14.47;9.20;;;4.00;99.90;;;;;;4894648;29;20527;-51
2022/03/13 01:19:31;;;;;;;14.53;8.87;;;3.90;99.90;;;;;;4887138;29;20448;-51
2022/03/13 01:21:57;;;;;;;18.80;8.93;;;3.90;99.90;;;;;;4910494;29;20471;-51
2022/03/13 01:24:31;;;;;;;15.03;8.90;;;3.90;99.90;;;;;;4894579;29;20741;-51
2022/03/13 01:27:02;;;;;;;17.53;8.80;;;3.90;99.90;;;;;;4894637;29;20427;-51
2022/03/13 01:29:32;;;;;;;13.00;8.13;;;3.90;99.90;;;;;;4895307;29;20483;-51
2022/03/13 01:31:57;;;;;;;13.20;8.50;;;3.80;99.90;;;;;;4894405;29;20536;-50
2022/03/13 01:34:38;;;;;;;17.10;9.40;;;3.80;99.90;;;;;;4893809;29;20898;-50
2022/03/13 01:37:13;;;;;;;20.83;9.23;;;3.70;99.90;;;;;;4891161;29;20244;-51
2022/03/13 01:39:39;;;;;;;16.93;8.60;;;3.60;99.90;;;;;;4889923;29;21003;-51
2022/03/13 01:42:05;;;;;;;16.40;9.10;;;3.60;99.90;;;;;;4893379;29;20915;-51
2022/03/13 01:44:31;;;;;;;26.57;9.50;;;3.60;99.90;;;;;;4893016;29;20475;-51
2022/03/13 01:46:57;;;;;;;13.90;8.33;;;3.60;99.90;;;;;;4893939;29;20447;-51
2022/03/13 01:49:24;;;;;;;18.33;9.13;;;3.50;99.90;;;;;;4893462;29;20376;-51
2022/03/13 01:51:50;;;;;;;14.27;8.60;;;3.50;99.90;;;;;;4893288;29;20310;-51
2022/03/13 01:54:17;;;;;;;18.97;9.47;;;3.60;99.90;;;;;;4893721;29;20452;-51
2022/03/13 01:56:43;;;;;;;13.97;8.90;;;3.50;99.90;;;;;;4893809;29;20540;-51
2022/03/13 01:59:11;;;;;;;16.13;9.47;;;3.40;99.90;;;;;;4892949;29;20444;-51
2022/03/13 02:01:37;;;;;;;16.63;8.97;;;3.30;99.90;;;;;;4893128;29;20195;-51
2022/03/13 02:04:04;;;;;;;16.33;9.23;;;3.20;99.90;;;;;;4894843;29;20479;-51
2022/03/13 02:06:29;;;;;;;18.37;9.83;;;3.20;99.90;;;;;;4892817;29;20528;-51
2022/03/13 02:08:55;;;;;;;14.53;9.30;;;3.10;99.90;;;;;;4893424;29;20480;-51
2022/03/13 02:11:24;;;;;;;12.20;8.40;;;3.10;99.90;;;;;;4893503;29;20196;-51
2022/03/13 02:13:51;;;;;;;16.57;8.77;;;3.10;99.90;;;;;;4889809;29;20432;-52
2022/03/13 02:16:18;;;;;;;16.80;10.60;;;3.10;99.90;;;;;;4892759;29;20436;-51
2022/03/13 02:18:50;;;;;;;16.90;9.07;;;3.10;99.90;;;;;;4893423;29;20446;-51
2022/03/13 02:21:17;;;;;;;18.83;11.03;;;3.10;99.90;;;;;;4894699;29;20443;-51
2022/03/13 02:23:42;;;;;;;13.23;8.43;;;3.10;99.90;;;;;;4896965;29;20446;-51
2022/03/13 02:26:08;;;;;;;18.43;9.10;;;3.10;99.90;;;;;;4897365;29;21162;-51
2022/03/13 02:28:37;;;;;;;12.73;8.67;;;3.00;99.90;;;;;;4896687;29;20639;-51
2022/03/13 02:31:12;;;;;;;15.77;9.70;;;3.00;99.90;;;;;;4896556;29;20184;-51
2022/03/13 02:33:38;;;;;;;16.23;8.70;;;3.00;99.90;;;;;;4892234;29;20489;-52
2022/03/13 02:36:12;;;;;;;16.83;8.63;;;2.90;99.90;;;;;;4895772;29;20432;-51
2022/03/13 02:38:38;;;;;;;15.07;9.40;;;2.90;99.90;;;;;;4896130;29;20439;-51
2022/03/13 02:41:05;;;;;;;17.33;9.40;;;2.80;99.90;;;;;;4897400;29;20903;-51
2022/03/13 02:43:30;;;;;;;16.10;9.10;;;2.80;99.90;;;;;;4895907;29;20439;-51
2022/03/13 02:45:56;;;;;;;22.50;9.63;;;2.80;99.90;;;;;;4896883;29;20440;-51
2022/03/13 02:48:22;;;;;;;18.90;9.67;;;2.80;99.90;;;;;;4895961;29;20219;-50
2022/03/13 02:50:48;;;;;;;17.70;9.47;;;2.90;99.90;;;;;;4897346;29;20474;-51
2022/03/13 02:53:17;;;;;;;13.13;8.60;;;2.90;99.90;;;;;;4897056;29;20202;-51
2022/03/13 02:55:44;;;;;;;18.17;8.60;;;2.90;99.90;;;;;;4895448;29;20440;-50
2022/03/13 02:58:10;;;;;;;19.47;9.50;;;3.00;99.90;;;;;;4893192;29;20884;-51
2022/03/13 03:00:48;;;;;;;14.83;9.10;;;2.90;99.90;;;;;;4895678;29;20440;-51
2022/03/13 03:03:16;;;;;;;17.07;9.40;;;2.90;99.90;;;;;;4894715;29;21175;-51
2022/03/13 03:05:42;;;;;;;22.40;12.13;;;2.80;99.90;;;;;;4897473;29;20896;-51
2022/03/13 03:08:08;;;;;;;15.63;9.60;;;2.80;99.90;;;;;;4896036;29;20559;-51
2022/03/13 03:10:36;;;;;;;18.40;9.70;;;2.70;99.90;;;;;;4895738;29;20810;-52
2022/03/13 03:13:01;;;;;;;14.53;8.80;;;2.70;99.90;;;;;;4895680;29;20559;-52
2022/03/13 03:15:27;;;;;;;17.53;9.67;;;2.70;99.90;;;;;;4895684;29;20853;-52
2022/03/13 03:17:53;;;;;;;17.53;9.97;;;2.70;99.90;;;;;;4895743;29;20200;-51
2022/03/13 03:20:21;;;;;;;16.50;9.70;;;2.60;99.90;;;;;;4895655;29;20326;-52
2022/03/13 03:22:48;;;;;;;16.23;10.10;;;2.60;99.90;;;;;;4895087;29;20458;-52
2022/03/13 03:25:13;;;;;;;18.47;9.60;;;2.50;99.90;;;;;;4891337;29;20950;-52
2022/03/13 03:27:40;;;;;;;12.80;8.53;;;2.50;99.90;;;;;;4895198;29;20450;-52
2022/03/13 03:30:06;;;;;;;17.50;9.10;;;2.40;99.90;;;;;;4893358;29;20678;-52
2022/03/13 03:32:31;;;;;;;20.13;10.17;;;2.30;99.90;;;;;;4895117;29;20527;-51
2022/03/13 03:34:57;;;;;;;25.83;9.80;;;2.30;99.90;;;;;;4895141;29;20582;-56
2022/03/13 03:37:22;;;;;;;17.10;8.53;;;2.20;99.90;;;;;;4891658;29;20210;-52
2022/03/13 03:39:48;;;;;;;16.93;9.80;;;2.20;99.90;;;;;;4895105;29;20246;-51
2022/03/13 03:42:14;;;;;;;18.50;10.10;;;2.10;99.90;;;;;;4895559;29;20199;-51
2022/03/13 03:44:39;;;;;;;15.43;9.53;;;2.10;99.90;;;;;;4886040;29;20839;-51
2022/03/13 03:47:05;;;;;;;17.90;9.83;;;2.10;99.90;;;;;;4895114;29;20187;-51
2022/03/13 03:49:30;;;;;;;17.10;10.43;;;2.10;99.90;;;;;;4895366;29;20268;-51
2022/03/13 03:51:56;;;;;;;22.23;10.90;;;2.10;99.90;;;;;;4894441;29;20638;-51
2022/03/13 03:54:21;;;;;;;18.17;10.07;;;2.00;99.90;;;;;;4894787;29;20208;-51
2022/03/13 03:56:47;;;;;;;16.33;9.67;;;1.90;99.90;;;;;;4895277;29;20207;-51
2022/03/13 03:59:12;;;;;;;19.30;10.20;;;1.90;99.90;;;;;;4891992;29;20199;-51
2022/03/13 04:01:40;;;;;;;15.43;9.17;;;1.90;99.90;;;;;;4893889;29;20199;-51
2022/03/13 04:04:07;;;;;;;18.10;10.37;;;1.80;99.90;;;;;;4895187;29;20294;-51
2022/03/13 04:06:34;;;;;;;18.63;10.30;;;1.80;99.90;;;;;;4894823;29;20436;-51
2022/03/13 04:09:00;;;;;;;15.33;9.90;;;1.70;99.90;;;;;;4894863;29;20804;-51
2022/03/13 04:11:26;;;;;;;18.00;10.80;;;1.60;99.90;;;;;;4894869;29;20462;-50
2022/03/13 04:13:51;;;;;;;17.03;10.07;;;1.50;99.90;;;;;;4893353;29;20467;-50
2022/03/13 04:16:17;;;;;;;15.20;9.70;;;1.60;99.90;;;;;;4894706;29;20255;-51
2022/03/13 04:18:42;;;;;;;17.50;10.30;;;1.60;99.90;;;;;;4894732;29;20206;-51
2022/03/13 04:21:08;;;;;;;20.07;10.80;;;1.60;99.90;;;;;;4894867;29;20577;-51
2022/03/13 04:23:35;;;;;;;16.27;10.53;;;1.60;99.90;;;;;;4894058;29;20618;-50
2022/03/13 04:26:02;;;;;;;14.57;9.70;;;1.50;99.90;;;;;;4894367;29;20184;-51
2022/03/13 04:28:29;;;;;;;19.07;10.03;;;1.50;99.90;;;;;;4893338;29;20444;-51
2022/03/13 04:30:56;;;;;;;18.87;10.30;;;1.50;99.90;;;;;;4890922;29;20834;-51
2022/03/13 04:33:23;;;;;;;18.27;9.67;;;1.50;99.90;;;;;;4890697;29;20460;-50
2022/03/13 04:35:49;;;;;;;22.43;10.43;;;1.50;99.90;;;;;;4893612;29;20500;-50
2022/03/13 04:38:15;;;;;;;21.47;10.27;;;1.50;99.90;;;;;;4893316;29;20844;-51
2022/03/13 04:40:40;;;;;;;18.30;10.73;;;1.50;99.90;;;;;;4893764;29;20642;-51
2022/03/13 04:43:07;;;;;;;17.03;10.00;;;1.70;99.90;;;;;;4876789;29;20455;-50
2022/03/13 04:45:34;;;;;;;18.53;10.90;;;1.60;99.90;;;;;;4893931;29;20259;-50
2022/03/13 04:47:59;;;;;;;20.80;10.23;;;1.60;99.90;;;;;;4893763;29;20444;-51
2022/03/13 04:50:25;;;;;;;21.30;11.50;;;1.50;99.90;;;;;;4894299;29;20443;-51
2022/03/13 04:52:50;;;;;;;20.20;11.00;;;1.50;99.90;;;;;;4893538;29;20195;-51
2022/03/13 04:55:18;;;;;;;20.47;10.30;;;1.40;99.90;;;;;;4890649;29;20187;-51
2022/03/13 04:57:43;;;;;;;23.10;10.60;;;1.40;99.90;;;;;;4894216;29;20200;-50
2022/03/13 05:00:09;;;;;;;19.40;9.93;;;1.50;99.90;;;;;;4877127;29;20519;-53
2022/03/13 05:02:36;;;;;;;17.37;10.17;;;1.50;99.90;;;;;;4893248;29;20977;-51
2022/03/13 05:05:02;;;;;;;19.63;10.60;;;1.40;99.90;;;;;;4895052;29;20482;-52
2022/03/13 05:07:28;;;;;;;18.63;10.50;;;1.50;99.90;;;;;;4893393;29;20436;-51
2022/03/13 05:09:54;;;;;;;18.53;10.73;;;1.40;99.90;;;;;;4894366;29;20529;-51
2022/03/13 05:12:29;;;;;;;17.73;10.33;;;1.50;99.90;;;;;;4893376;29;20432;-51
2022/03/13 05:14:55;;;;;;;21.60;10.70;;;1.40;99.90;;;;;;4893523;29;20194;-50
2022/03/13 05:17:20;;;;;;;21.17;10.40;;;1.30;99.90;;;;;;4893918;29;20448;-51
2022/03/13 05:19:46;;;;;;;20.67;11.30;;;1.30;99.90;;;;;;4893078;29;20201;-50
2022/03/13 05:22:12;;;;;;;18.87;11.43;;;1.30;99.90;;;;;;4893687;29;20195;-50
2022/03/13 05:24:37;;;;;;;16.80;10.53;;;1.30;99.90;;;;;;4893707;29;20211;-51
2022/03/13 05:27:03;;;;;;;16.17;10.27;;;1.20;99.90;;;;;;4893278;29;20279;-50
2022/03/13 05:29:28;;;;;;;19.90;11.33;;;1.40;99.90;;;;;;4893806;29;20200;-50
2022/03/13 05:31:54;;;;;;;16.30;10.17;;;1.30;99.90;;;;;;4892846;29;20646;-51
2022/03/13 05:34:19;;;;;;;18.53;10.43;;;1.40;99.90;;;;;;4893426;29;20237;-50
2022/03/13 05:36:46;;;;;;;24.23;11.47;;;1.30;99.90;;;;;;4893666;29;20557;-51
2022/03/13 05:39:12;;;;;;;17.60;9.83;;;1.30;99.90;;;;;;4893792;29;20195;-50
2022/03/13 05:41:39;;;;;;;18.17;10.60;;;1.20;99.90;;;;;;4893086;29;20501;-51
2022/03/13 05:44:07;;;;;;;17.93;9.80;;;1.30;99.90;;;;;;4893662;29;20307;-54
2022/03/13 05:46:34;;;;;;;20.90;10.77;;;1.30;99.90;;;;;;4887496;29;20455;-50
2022/03/13 05:48:59;;;;;;;15.73;10.10;;;1.20;99.90;;;;;;4892384;29;20440;-51
2022/03/13 05:51:25;;;;;;;18.50;11.50;;;1.10;99.90;;;;;;4892055;29;20929;-51
2022/03/13 05:53:51;;;;;;;18.90;10.90;;;1.10;99.90;;;;;;4892935;29;20184;-51
2022/03/13 05:56:16;;;;;;;19.40;10.50;;;1.20;99.90;;;;;;4893458;29;20555;-51
2022/03/13 05:58:42;;;;;;;16.03;9.47;;;1.20;99.90;;;;;;4895845;29;20548;-51
2022/03/13 06:01:08;;;;;;;19.67;10.40;;;1.30;99.90;;;;;;4885798;29;20196;-50
2022/03/13 06:03:34;;;;;;;17.40;10.03;;;1.20;99.90;;;;;;4892003;29;20199;-50
2022/03/13 06:06:02;;;;;;;16.37;10.47;;;1.20;99.90;;;;;;4894825;29;20519;-55
2022/03/13 06:08:27;;;;;;;17.03;10.90;;;1.20;99.90;;;;;;4893174;29;20200;-51
2022/03/13 06:10:53;;;;;;;17.47;10.17;;;1.20;99.90;;;;;;4894047;29;20459;-51
2022/03/13 06:13:22;;;;;;;17.77;10.33;;;1.10;99.90;;;;;;4895465;29;20199;-50
2022/03/13 06:15:48;;;;;;;20.30;10.23;;;1.20;99.90;;;;;;4895403;29;20184;-50
2022/03/13 06:18:13;;;;;;;21.30;11.50;;;1.20;99.90;;;;;;4896057;29;20439;-50
2022/03/13 06:20:39;;;;;;;18.63;10.03;;;1.30;99.90;;;;;;4893728;29;20441;-51
2022/03/13 06:23:05;;;;;;;18.37;10.90;;;1.30;99.90;;;;;;4893363;29;20196;-51
2022/03/13 06:25:30;;;;;;;34.47;10.53;;;1.40;99.90;;;;;;4892154;29;20204;-50
2022/03/13 06:27:56;;;;;;;15.40;9.67;;;1.40;99.90;;;;;;4895292;29;20215;-50
2022/03/13 06:30:22;;;;;;;17.73;10.63;;;1.40;99.90;;;;;;4893125;29;20191;-51
2022/03/13 06:32:50;;;;;;;17.43;9.60;;;1.60;99.90;;;;;;4894061;29;20191;-51
2022/03/13 06:35:17;;;;;;;18.73;9.73;;;1.70;99.90;;;;;;4895824;29;20240;-51
2022/03/13 06:37:43;;;;;;;19.10;10.50;;;1.80;99.90;;;;;;4891790;29;20459;-50
2022/03/13 06:40:10;;;;;;;18.10;10.80;;;2.00;99.90;;;;;;4895247;29;20499;-51
2022/03/13 06:42:37;;;;;;;24.97;10.87;;;2.30;99.90;;;;;;4895167;29;20459;-50
2022/03/13 06:45:04;;;;;;;16.27;9.77;;;2.40;99.90;;;;;;4894654;29;20922;-51
2022/03/13 06:47:29;;;;;;;18.40;10.27;;;2.50;99.90;;;;;;4894930;29;20791;-51
2022/03/13 06:49:55;;;;;;;20.73;11.33;;;2.50;99.90;;;;;;4894473;29;20534;-51
2022/03/13 06:52:20;;;;;;;19.47;10.00;;;2.50;99.90;;;;;;4896767;29;20574;-50
2022/03/13 06:54:47;;;;;;;17.23;10.23;;;2.60;99.90;;;;;;4894775;29;20251;-50
2022/03/13 06:57:17;;;;;;;20.70;10.27;;;2.80;99.90;;;;;;4895275;29;20199;-51
2022/03/13 06:59:43;;;;;;;18.30;10.37;;;2.90;99.90;;;;;;4891815;29;20809;-50
2022/03/13 07:02:10;;;;;;;18.00;10.27;;;3.00;99.90;;;;;;4895070;29;20450;-51
2022/03/13 07:04:35;;;;;;;23.70;9.60;;;3.00;99.90;;;;;;4877380;29;20214;-51
2022/03/13 07:07:01;;;;;;;18.50;10.50;;;3.10;99.90;;;;;;4886752;29;20504;-51
2022/03/13 07:09:27;;;;;;;16.17;9.93;;;3.20;99.90;;;;;;4887666;29;20192;-51
2022/03/13 07:11:52;;;;;;;22.30;10.40;;;3.20;99.90;;;;;;4886260;29;20211;-51
2022/03/13 07:14:19;;;;;;;18.70;10.93;;;3.30;99.90;;;;;;4878248;29;20203;-51
2022/03/13 07:16:45;;;;;;;18.60;9.63;;;3.50;99.90;;;;;;4891551;29;20187;-51
2022/03/13 07:19:10;;;;;;;21.73;10.00;;;3.80;99.90;;;;;;4893516;29;20452;-51
2022/03/13 07:21:38;;;;;;;21.03;10.53;;;4.20;99.90;;;;;;4893809;29;20202;-51
2022/03/13 07:24:04;;;;;;;17.20;10.43;;;4.50;99.90;;;;;;4892941;29;20216;-50
2022/03/13 07:26:30;;;;;;;17.40;10.80;;;4.90;99.90;;;;;;4894821;29;20445;-52
2022/03/13 07:28:55;;;;;;;17.70;10.20;;;5.50;99.90;;;;;;4893124;29;20787;-51
2022/03/13 07:31:21;;;;;;;18.50;9.63;;;6.10;99.90;;;;;;4893939;29;20271;-51
2022/03/13 07:33:47;;;;;;;16.83;10.57;;;6.40;99.90;;;;;;4894151;29;20342;-51
2022/03/13 07:36:12;;;;;;;18.27;10.70;;;6.80;99.90;;;;;;4893933;29;20248;-51
2022/03/13 07:38:38;;;;;;;16.30;9.27;;;7.30;99.90;;;;;;4893456;29;20203;-51
2022/03/13 07:41:03;;;;;;;20.47;12.27;;;7.30;99.90;;;;;;4893114;29;20188;-51
2022/03/13 07:43:29;;;;;;;18.03;10.90;;;7.50;99.90;;;;;;4893412;29;20220;-51
2022/03/13 07:45:55;;;;;;;18.00;10.47;;;7.80;99.90;;;;;;4894559;29;20275;-51
2022/03/13 07:48:20;;;;;;;17.17;10.60;;;7.80;99.90;;;;;;4894730;29;20737;-51
2022/03/13 07:50:46;;;;;;;21.40;10.73;;;8.00;99.90;;;;;;4892578;29;20211;-51
2022/03/13 07:53:12;;;;;;;17.77;10.93;;;8.00;99.90;;;;;;4893065;29;20263;-52
2022/03/13 07:55:37;;;;;;;22.83;10.90;;;8.30;99.90;;;;;;4893489;29;20213;-51
2022/03/13 07:58:03;;;;;;;21.43;10.40;;;8.60;99.90;;;;;;4891572;29;20643;-51
2022/03/13 08:00:28;;;;;;;19.53;10.67;;;8.60;99.90;;;;;;4891228;29;20264;-51
2022/03/13 08:02:54;;;;;;;19.70;10.53;;;8.90;99.90;;;;;;4889495;29;20204;-52
2022/03/13 08:05:24;;;;;;;18.30;10.27;;;8.80;99.90;;;;;;4887671;29;20559;-52
2022/03/13 08:07:51;;;;;;;16.30;10.03;;;9.20;99.90;;;;;;4893514;29;20206;-52
2022/03/13 08:10:24;;;;;;;18.63;10.43;;;9.60;99.90;;;;;;4893207;29;20458;-51
2022/03/13 08:12:50;;;;;;;20.13;10.43;;;9.70;99.90;;;;;;4890824;29;22057;-52
2022/03/13 08:15:17;;;;;;;17.03;10.17;;;10.10;99.90;;;;;;4893303;29;20530;-51
2022/03/13 08:17:42;;;;;;;17.17;10.20;;;9.80;99.90;;;;;;4894346;29;20432;-52
2022/03/13 08:20:10;;;;;;;17.40;10.53;;;9.70;99.90;;;;;;4894181;29;20802;-51
2022/03/13 08:22:35;;;;;;;16.00;9.90;;;9.80;99.90;;;;;;4895064;29;20286;-52
2022/03/13 08:25:01;;;;;;;16.43;10.53;;;10.20;99.90;;;;;;4895233;29;20562;-52
2022/03/13 08:27:26;;;;;;;18.17;10.57;;;10.20;99.90;;;;;;4893974;29;20187;-52
2022/03/13 08:29:52;;;;;;;18.33;11.20;;;10.50;99.90;;;;;;4894836;29;20187;-51
2022/03/13 08:32:18;;;;;;;14.70;10.63;;;10.80;99.90;;;;;;4894706;29;20634;-52
2022/03/13 08:34:45;;;;;;;20.20;11.00;;;10.90;99.90;;;;;;4894436;29;20318;-52
2022/03/13 08:37:12;;;;;;;15.90;9.90;;;10.80;99.90;;;;;;4894606;29;20492;-52
2022/03/13 08:39:38;;;;;;;17.47;10.10;;;11.00;99.90;;;;;;4894665;29;20440;-52
2022/03/13 08:42:05;;;;;;;17.80;10.33;;;11.20;99.90;;;;;;4893747;29;20768;-51
2022/03/13 08:44:30;;;;;;;16.50;10.50;;;11.30;99.90;;;;;;4894830;29;20464;-52
2022/03/13 08:46:56;;;;;;;16.50;10.07;;;11.10;99.90;;;;;;4894649;29;20438;-52
2022/03/13 08:49:22;;;;;;;14.83;10.53;;;11.20;99.90;;;;;;4894233;29;20192;-52
2022/03/13 08:51:47;;;;;;;14.97;9.23;;;11.40;99.90;;;;;;4894448;29;20184;-51
2022/03/13 08:54:16;;;;;;;19.47;11.70;;;11.30;99.90;;;;;;4894135;29;20199;-52
2022/03/13 08:56:42;;;;;;;15.03;10.20;;;11.10;99.90;;;;;;4894122;29;20279;-52
2022/03/13 08:59:08;;;;;;;14.57;10.37;;;11.50;99.90;;;;;;4892957;29;20507;-52
2022/03/13 09:01:34;;;;;;;17.60;10.00;;;11.80;99.90;;;;;;4894128;29;20447;-52
2022/03/13 09:03:59;;;;;;;17.20;10.53;;;12.00;99.90;;;;;;4893415;29;20205;-52
2022/03/13 09:06:25;;;;;;;15.60;9.47;;;12.20;99.90;;;;;;4893663;29;20191;-52
2022/03/13 09:08:50;;;;;;;17.43;10.13;;;12.40;99.90;;;;;;4893510;29;20188;-52
2022/03/13 09:11:17;;;;;;;15.67;10.10;;;12.30;99.90;;;;;;4891275;29;20184;-54
2022/03/13 09:13:43;;;;;;;16.20;10.20;;;11.80;99.90;;;;;;4890472;29;20188;-52
2022/03/13 09:16:08;;;;;;;18.90;11.23;;;11.90;99.90;;;;;;4893290;29;20453;-51
2022/03/13 09:18:34;;;;;;;15.50;10.47;;;12.10;99.90;;;;;;4892820;29;20586;-52
2022/03/13 09:21:00;;;;;;;15.80;9.93;;;12.00;99.90;;;;;;4877019;29;20538;-52
2022/03/13 09:23:26;;;;;;;18.27;10.20;;;11.70;99.90;;;;;;4891769;29;20241;-53
2022/03/13 09:25:52;;;;;;;14.23;9.80;;;11.20;99.90;;;;;;4872665;29;20223;-52
2022/03/13 09:28:18;;;;;;;18.10;10.73;;;10.70;99.90;;;;;;4891621;29;20444;-52
2022/03/13 09:30:44;;;;;;;16.23;9.53;;;10.20;99.90;;;;;;4897184;29;20428;-52
2022/03/13 09:33:11;;;;;;;17.07;10.23;;;9.80;99.90;;;;;;4899587;29;20198;-52
2022/03/13 09:35:37;;;;;;;16.90;10.87;;;9.80;99.90;;;;;;4899551;29;20701;-53
2022/03/13 09:38:02;;;;;;;23.60;10.40;;;10.00;99.90;;;;;;4899891;29;20443;-52
2022/03/13 09:40:28;;;;;;;15.63;10.20;;;10.20;99.90;;;;;;4900622;29;20882;-52
2022/03/13 09:42:55;;;;;;;16.37;10.10;;;10.60;99.90;;;;;;4900127;29;20199;-53
2022/03/13 09:45:20;;;;;;;14.03;9.90;;;10.70;99.90;;;;;;4900242;29;20259;-52
2022/03/13 09:47:46;;;;;;;18.13;10.93;;;10.20;99.90;;;;;;4899831;29;20432;-52
2022/03/13 09:50:13;;;;;;;16.60;10.17;;;9.60;99.90;;;;;;4900212;29;20650;-53
2022/03/13 09:52:40;;;;;;;15.60;9.80;;;9.40;99.90;;;;;;4899823;29;20496;-53
2022/03/13 09:55:10;;;;;;;19.30;10.30;;;9.30;99.90;;;;;;4874422;29;20471;-52
2022/03/13 09:57:39;;;;;;;16.50;10.70;;;9.60;99.90;;;;;;4897730;29;20436;-52
2022/03/13 10:00:08;;;;;;;16.00;10.17;;;9.80;99.90;;;;;;4882745;29;20445;-53
2022/03/13 10:02:36;;;;;;;18.53;10.73;;;9.70;99.90;;;;;;4896081;29;20432;-53
2022/03/13 10:05:16;;;;;;;15.80;9.97;;;9.60;99.90;;;;;;4900984;29;20479;-53
2022/03/13 10:08:00;;;;;;;15.60;10.03;;;9.70;99.90;;;;;;4901296;29;20412;-53
2022/03/13 10:10:42;;;;;;;15.17;9.83;;;9.90;99.90;;;;;;4897839;29;20424;-52
2022/03/13 10:13:08;;;;;;;17.63;10.37;;;9.80;99.90;;;;;;4898240;29;20431;-52
2022/03/13 10:15:42;;;;;;;14.77;9.53;;;9.90;99.90;;;;;;4899173;29;20989;-52
2022/03/13 10:18:12;;;;;;;14.80;9.70;;;9.60;99.90;;;;;;4897930;29;20523;-52
2022/03/13 10:20:41;;;;;;;15.57;10.20;;;9.40;99.90;;;;;;4900688;29;20519;-52
2022/03/13 10:23:10;;;;;;;13.93;9.57;;;9.40;99.90;;;;;;4898957;29;20432;-52
2022/03/13 10:25:38;;;;;;;14.07;10.10;;;9.50;99.90;;;;;;4882478;29;20476;-59
2022/03/13 10:28:20;;;;;;;13.17;8.73;;;9.60;99.90;;;;;;4885500;29;20428;-52
2022/03/13 10:31:03;;;;;;;19.13;10.20;;;9.90;99.90;;;;;;4900817;29;20431;-52
2022/03/13 10:33:47;;;;;;;14.00;10.00;;;10.20;99.90;;;;;;4900733;29;20439;-53
2022/03/13 10:36:18;;;;;;;15.60;10.30;;;10.60;99.90;;;;;;4882143;29;20413;-52
2022/03/13 10:38:45;;;;;;;15.43;9.27;;;10.50;99.90;;;;;;4883536;29;20459;-53
2022/03/13 10:41:12;;;;;;;18.43;9.83;;;10.60;99.90;;;;;;4889954;29;20444;-52
2022/03/13 10:43:51;;;;;;;14.23;9.70;;;11.00;99.90;;;;;;4878758;29;20413;-52
2022/03/13 10:46:36;;;;;;;13.03;9.70;;;10.80;99.90;;;;;;4885215;29;20433;-52
2022/03/13 10:49:04;;;;;;;16.00;9.67;;;11.00;99.90;;;;;;4897957;29;20400;-52
2022/03/13 10:51:46;;;;;;;14.10;9.97;;;11.20;99.90;;;;;;4897596;29;20887;-53
2022/03/13 10:54:28;;;;;;;15.63;9.50;;;11.80;99.90;;;;;;4880742;29;21041;-53
2022/03/13 10:57:11;;;;;;;16.27;9.10;;;12.60;99.90;;;;;;4897571;29;20909;-52
2022/03/13 10:59:40;;;;;;;16.50;10.20;;;13.60;99.90;;;;;;4897476;29;20790;-54
2022/03/13 11:02:18;;;;;;;15.03;10.07;;;14.30;99.90;;;;;;4897440;29;20456;-53
2022/03/13 11:04:57;;;;;;;26.50;10.90;;;15.30;99.90;;;;;;4896937;29;20472;-53
2022/03/13 11:07:25;;;;;;;15.93;9.50;;;16.30;99.90;;;;;;4897583;29;20455;-53
2022/03/13 11:09:51;;;;;;;16.93;10.23;;;16.80;99.90;;;;;;4897138;29;20503;-53
2022/03/13 11:12:20;;;;;;;14.90;9.83;;;17.00;99.90;;;;;;4897328;29;20986;-52
2022/03/13 11:14:55;;;;;;;12.97;9.67;;;17.20;99.90;;;;;;4897191;29;20480;-53
2022/03/13 11:17:22;;;;;;;14.70;9.23;;;17.50;99.90;;;;;;4897190;29;20740;-52
2022/03/13 11:19:52;;;;;;;13.17;9.50;;;17.70;99.90;;;;;;4897029;29;20439;-53
2022/03/13 11:22:20;;;;;;;15.47;10.03;;;17.30;99.90;;;;;;4895770;29;20536;-52
2022/03/13 11:24:47;;;;;;;12.57;9.17;;;17.60;99.90;;;;;;4878620;29;20472;-52
2022/03/13 11:27:15;;;;;;;16.50;11.17;;;18.00;99.90;;;;;;4878444;29;20955;-53
2022/03/13 11:29:52;;;;;;;12.27;9.07;;;18.30;99.90;;;;;;4878138;29;20421;-53
2022/03/13 11:32:33;;;;;;;14.50;10.40;;;17.90;99.90;;;;;;4878143;29;20428;-52
2022/03/13 11:35:11;;;;;;;11.43;9.47;;;17.80;99.90;;;;;;4883658;29;20476;-53
2022/03/13 11:37:37;;;;;;;15.30;9.80;;;18.10;99.90;;;;;;4896733;29;20436;-53
2022/03/13 11:40:05;;;;;;;12.87;9.20;;;18.00;99.90;;;;;;4897172;29;20498;-53
2022/03/13 11:42:50;;;;;;;14.00;10.20;;;17.80;99.90;;;;;;4896603;29;20768;-52
2022/03/13 11:45:29;;;;;;;13.23;9.67;;;18.40;99.90;;;;;;4896726;29;20452;-53
2022/03/13 11:48:22;;;;;;;13.00;9.63;;;18.90;99.90;;;;;;4897159;29;20410;-53
2022/03/13 11:50:58;;;;;;;11.67;9.10;;;19.60;99.90;;;;;;4896629;29;20405;-61
2022/03/13 11:53:42;;;;;;;12.13;9.50;;;20.10;99.90;;;;;;4896173;29;20407;-52
2022/03/13 11:56:10;;;;;;;12.30;9.33;;;19.60;99.90;;;;;;4877797;29;20924;-53
2022/03/13 11:58:52;;;;;;;10.20;8.37;;;18.70;99.90;;;;;;4886158;29;20408;-53
2022/03/13 12:01:39;;;;;;;14.60;9.03;;;19.00;99.90;;;;;;4896563;29;20871;-53
2022/03/13 12:04:07;;;;;;;14.67;9.53;;;20.10;99.90;;;;;;4895739;29;20428;-53
2022/03/13 12:06:39;;;;;;;14.97;9.30;;;20.50;99.90;;;;;;4896291;29;20739;-53
2022/03/13 12:09:06;;;;;;;14.40;9.20;;;20.40;99.90;;;;;;4896481;29;20432;-54
2022/03/13 12:11:44;;;;;;;13.80;9.70;;;20.70;99.90;;;;;;4895779;29;20791;-53
2022/03/13 12:14:11;;;;;;;12.93;9.33;;;20.50;99.90;;;;;;4896559;29;20396;-53
2022/03/13 12:16:38;;;;;;;13.27;9.40;;;20.30;99.90;;;;;;4896329;29;20862;-53
2022/03/13 12:19:05;;;;;;;12.67;9.60;;;20.80;99.90;;;;;;4896272;29;20507;-53
2022/03/13 12:21:32;;;;;;;13.10;9.90;;;20.40;99.90;;;;;;4878709;29;20448;-53
2022/03/13 12:24:17;;;;;;;12.70;9.80;;;20.20;99.90;;;;;;4896260;29;20943;-60
2022/03/13 12:26:47;;;;;;;13.47;8.63;;;19.90;99.90;;;;;;4894292;29;20438;-53
2022/03/13 12:29:18;;;;;;;11.43;8.27;;;20.00;99.90;;;;;;4895627;29;20436;-54
2022/03/13 12:31:48;;;;;;;11.50;9.27;;;20.30;99.90;;;;;;4896100;29;20927;-53
2022/03/13 12:34:26;;;;;;;13.30;9.40;;;19.90;99.90;;;;;;4895791;29;20482;-52
2022/03/13 12:36:53;;;;;;;13.53;9.53;;;19.50;99.90;;;;;;4896356;29;20420;-53
2022/03/13 12:39:20;;;;;;;14.40;9.60;;;19.10;99.90;;;;;;4896006;29;20419;-55
2022/03/13 12:41:58;;;;;;;13.70;8.40;;;19.20;99.90;;;;;;4883600;29;20500;-52